TimeMST,TemperatureF,Dew PointF,Humidity,Sea Level PressureIn,VisibilityMPH,Wind Direction,Wind SpeedMPH,Gust SpeedMPH,PrecipitationIn,Events,Conditions,WindDirDegrees,DateUTC
12:05 AM,24.8,15.8,69,30.23,10.0,NE,9.2,-,N/A,,Overcast,50,2013-02-15 07:05:00
12:53 AM,23.0,16.0,74,30.25,10.0,NE,9.2,-,N/A,,Overcast,40,2013-02-15 07:53:00
1:53 AM,23.0,15.1,72,30.25,10.0,ESE,5.8,-,N/A,,Overcast,110,2013-02-15 08:53:00
2:53 AM,23.0,15.1,72,30.23,10.0,SE,3.5,-,N/A,,Overcast,140,2013-02-15 09:53:00
3:53 AM,23.0,16.0,74,30.24,10.0,SW,3.5,-,N/A,,Overcast,230,2013-02-15 10:53:00
4:53 AM,23.0,18.0,81,30.25,10.0,SW,13.8,-,N/A,,Overcast,220,2013-02-15 11:53:00
5:03 AM,23.0,17.6,80,30.22,10.0,SW,9.2,-,N/A,,Overcast,220,2013-02-15 12:03:00
5:53 AM,21.9,18.0,85,30.29,10.0,South,10.4,-,N/A,,Overcast,180,2013-02-15 12:53:00
6:53 AM,21.9,18.0,85,30.32,10.0,South,8.1,-,N/A,,Overcast,180,2013-02-15 13:53:00
7:53 AM,23.0,18.0,81,30.33,10.0,SSW,5.8,-,N/A,,Overcast,200,2013-02-15 14:53:00
8:39 AM,24.8,17.6,74,30.26,10.0,SSW,4.6,-,N/A,,Overcast,210,2013-02-15 15:39:00
8:53 AM,24.1,18.0,77,30.34,10.0,SSW,3.5,-,N/A,,Overcast,200,2013-02-15 15:53:00
9:48 AM,26.6,17.6,69,30.26,10.0,WSW,3.5,-,N/A,,Scattered Clouds,250,2013-02-15 16:48:00
9:53 AM,28.0,18.0,66,30.32,10.0,WSW,5.8,-,N/A,,Partly Cloudy,240,2013-02-15 16:53:00
10:53 AM,30.9,17.1,57,30.30,10.0,SSE,4.6,-,N/A,,Clear,160,2013-02-15 17:53:00
11:53 AM,33.1,16.0,50,30.27,10.0,SW,6.9,-,N/A,,Mostly Cloudy,230,2013-02-15 18:53:00
12:53 PM,35.1,19.0,52,30.24,10.0,SSW,8.1,-,0.00,,Overcast,210,2013-02-15 19:53:00
1:53 PM,37.0,16.0,42,30.22,10.0,ESE,5.8,-,N/A,,Overcast,110,2013-02-15 20:53:00
2:53 PM,37.9,12.9,36,30.20,10.0,Calm,Calm,-,N/A,,Mostly Cloudy,0,2013-02-15 21:53:00
3:53 PM,43.0,7.0,23,30.19,10.0,NNE,5.8,-,N/A,,Scattered Clouds,20,2013-02-15 22:53:00
4:53 PM,39.9,7.0,26,30.22,10.0,ESE,6.9,-,N/A,,Partly Cloudy,110,2013-02-15 23:53:00
5:53 PM,34.0,6.1,31,30.27,10.0,NNE,6.9,-,N/A,,Clear,30,2013-02-16 00:53:00
6:53 PM,30.0,8.1,40,30.33,10.0,NE,6.9,-,N/A,,Clear,40,2013-02-16 01:53:00
7:53 PM,28.0,12.9,53,30.36,10.0,NE,15.0,-,N/A,,Clear,40,2013-02-16 02:53:00
8:53 PM,23.0,12.0,63,30.39,10.0,NE,10.4,-,N/A,,Clear,50,2013-02-16 03:53:00
9:53 PM,21.0,10.9,65,30.39,10.0,NE,8.1,-,N/A,,Clear,50,2013-02-16 04:53:00
10:53 PM,18.0,10.0,71,30.40,10.0,Calm,Calm,-,N/A,,Clear,0,2013-02-16 05:53:00
11:53 PM,19.9,10.9,68,30.38,10.0,North,3.5,-,N/A,,Clear,10,2013-02-16 06:53:00